Grayling, Michigan
Current Conditions -  °F | °C
As of 10:15 PM on Thursday 18 Dec 2014 (Local Time) from KGOV Reporting Station
Overcast Overcast  
Wind Chill: 19°   Ceiling: 800
Heat Index: 19°   Visibility: 10mi
Dew Point: 17°   Wind: 3mph
Humidity: 94%   Direction: 50°NE
Pressure: 30.2"   Gusts: NA
Location:  44.66°N, 84.71°W
Report Text: KGOV 190315Z AUTO 05003KT 10SM OVC008 M07/M08 A3020 RMK AO2 T10751083
Loading
Personal Weather Stations






























Interactive Weather Map New forecast layout! Learn more

10-Day Weather Forecast

Advertisements
Track Severe Weather on mobile